Time;durP1;ratioP1;P1;durP2;ratioP2;P2;SDS_P1;SDS_P2;PMS_P1;PMS_P2;Temp;Humidity;BMP_temperature;BMP_pressure;BME280_temperature;BME280_humidity;BME280_pressure;Samples;Min_cycle;Max_cycle;Signal;HPM_P1;HPM_P2
2023/12/28 00:01:45;;;;;;;51.53;19.37;;;;;;;-0.18;100.00;100535.34;4227265;28;20329;-67
2023/12/28 00:04:12;;;;;;;45.13;18.33;;;;;;;-0.19;100.00;100530.97;4231364;28;21184;-67
2023/12/28 00:06:39;;;;;;;52.87;18.03;;;;;;;-0.10;100.00;100519.00;4246027;28;20715;-66
2023/12/28 00:09:07;;;;;;;49.97;20.00;;;;;;;-0.23;100.00;100514.31;4223142;28;20239;-67
2023/12/28 00:11:38;;;;;;;62.53;21.50;;;;;;;-0.33;100.00;100521.00;4228210;28;20409;-68
2023/12/28 00:14:05;;;;;;;50.87;19.17;;;;;;;-0.28;100.00;100518.97;4227521;28;20236;-68
2023/12/28 00:16:37;;;;;;;66.23;22.50;;;;;;;-0.33;100.00;100495.25;4237168;28;20289;-67
2023/12/28 00:19:04;;;;;;;62.80;20.87;;;;;;;-0.38;100.00;100488.47;4230816;28;20231;-67
2023/12/28 00:21:31;;;;;;;60.60;21.57;;;;;;;-0.42;100.00;100494.84;4230210;28;20227;-66
2023/12/28 00:23:58;;;;;;;58.53;20.27;;;;;;;-0.44;100.00;100484.31;4225980;28;20227;-67
2023/12/28 00:26:24;;;;;;;57.37;20.93;;;;;;;-0.44;100.00;100478.09;4237728;28;20238;-67
2023/12/28 00:28:51;;;;;;;64.33;22.60;;;;;;;-0.51;100.00;100462.47;4234722;28;20239;-68
2023/12/28 00:31:17;;;;;;;58.00;21.80;;;;;;;-0.46;100.00;100456.91;4228528;28;20235;-69
2023/12/28 00:33:44;;;;;;;59.30;22.40;;;;;;;-0.44;100.00;100459.50;4229780;28;20517;-69
2023/12/28 00:36:11;;;;;;;65.87;23.30;;;;;;;-0.41;100.00;100468.19;4235428;28;20238;-67
2023/12/28 00:38:38;;;;;;;69.57;21.40;;;;;;;-0.40;100.00;100474.38;4233602;28;20232;-66
2023/12/28 00:41:04;;;;;;;64.83;21.47;;;;;;;-0.38;100.00;100476.00;4229866;28;21742;-69
2023/12/28 00:43:31;;;;;;;58.07;21.77;;;;;;;-0.35;100.00;100481.19;4225005;28;20284;-69
2023/12/28 00:45:57;;;;;;;60.30;21.50;;;;;;;-0.15;100.00;100481.97;4231806;28;20297;-71
2023/12/28 00:48:24;;;;;;;63.17;21.40;;;;;;;-0.14;100.00;100493.47;4232118;28;20223;-68
2023/12/28 00:50:55;;;;;;;66.53;21.63;;;;;;;-0.02;100.00;100509.69;4228969;28;20600;-67
2023/12/28 00:53:21;;;;;;;59.87;20.00;;;;;;;0.06;100.00;100506.66;4226819;28;21475;-70
2023/12/28 00:55:48;;;;;;;54.40;20.10;;;;;;;-0.01;100.00;100491.94;4238330;28;20265;-69
2023/12/28 00:58:15;;;;;;;58.83;20.13;;;;;;;-0.05;100.00;100485.91;4229131;28;20241;-67
2023/12/28 01:00:42;;;;;;;54.90;20.07;;;;;;;-0.19;100.00;100456.47;4225454;28;20306;-67
2023/12/28 01:03:09;;;;;;;50.77;19.50;;;;;;;-0.21;100.00;100467.19;4241307;28;20241;-69
2023/12/28 01:05:36;;;;;;;54.23;20.87;;;;;;;-0.35;100.00;100480.31;4234981;28;20246;-68
2023/12/28 01:08:03;;;;;;;58.83;21.43;;;;;;;-0.28;100.00;100480.88;4230437;28;20226;-69
2023/12/28 01:10:29;;;;;;;56.63;21.17;;;;;;;-0.41;100.00;100468.19;4229330;28;20510;-70
2023/12/28 01:12:56;;;;;;;59.40;20.17;;;;;;;-0.38;100.00;100476.00;4231554;28;20231;-67
2023/12/28 01:15:22;;;;;;;56.47;19.63;;;;;;;-0.41;100.00;100473.50;4229044;28;21504;-66
2023/12/28 01:17:49;;;;;;;59.03;21.10;;;;;;;-0.51;100.00;100464.28;4230604;28;21006;-67
2023/12/28 01:20:16;;;;;;;60.60;21.20;;;;;;;-0.50;100.00;100456.22;4230026;28;20273;-68
2023/12/28 01:22:42;;;;;;;47.70;19.07;;;;;;;-0.43;100.00;100451.47;4230456;28;20285;-68
2023/12/28 01:25:09;;;;;;;49.27;18.63;;;;;;;-0.57;100.00;100438.00;4225951;28;23391;-68
2023/12/28 01:27:35;;;;;;;64.57;19.50;;;;;;;-0.59;100.00;100440.69;4232899;28;20234;-69
2023/12/28 01:30:02;;;;;;;57.70;20.30;;;;;;;-0.64;100.00;100437.41;4238295;28;21090;-67
2023/12/28 01:32:29;;;;;;;57.47;18.53;;;;;;;-0.55;100.00;100431.66;4237948;28;21652;-68
2023/12/28 01:34:55;;;;;;;67.83;19.90;;;;;;;-0.56;100.00;100421.94;4240768;28;20307;-68
2023/12/28 01:37:23;;;;;;;56.57;17.10;;;;;;;-0.52;100.00;100420.00;4236661;28;20298;-66
2023/12/28 01:39:49;;;;;;;47.43;16.63;;;;;;;-0.43;100.00;100421.31;4238423;28;22534;-67
2023/12/28 01:42:16;;;;;;;48.27;16.57;;;;;;;-0.44;100.00;100423.13;4244281;28;20801;-68
2023/12/28 01:44:42;;;;;;;47.67;16.47;;;;;;;-0.43;100.00;100421.31;4237401;28;21038;-69
2023/12/28 01:47:09;;;;;;;47.53;16.47;;;;;;;-0.41;100.00;100419.44;4237181;28;20333;-69
2023/12/28 01:49:36;;;;;;;44.30;16.57;;;;;;;-0.39;100.00;100406.94;4241004;28;20242;-68
2023/12/28 01:52:04;;;;;;;53.80;16.53;;;;;;;-0.53;100.00;100404.97;4234846;28;23002;-67
2023/12/28 01:54:31;;;;;;;50.53;15.97;;;;;;;-0.27;100.00;100402.81;4236854;28;20838;-68
2023/12/28 01:57:00;;;;;;;44.03;15.10;;;;;;;-0.27;100.00;100394.81;4232575;28;20285;-67
2023/12/28 01:59:27;;;;;;;53.07;15.03;;;;;;;-0.15;100.00;100394.19;4239583;28;20243;-68
2023/12/28 02:01:55;;;;;;;40.73;13.97;;;;;;;-0.26;100.00;100381.44;4223806;28;20232;-68
2023/12/28 02:04:27;;;;;;;45.83;14.77;;;;;;;-0.17;100.00;100366.78;4255080;28;20238;-67
2023/12/28 02:06:59;;;;;;;43.90;15.10;;;;;;;-0.25;100.00;100350.34;4234389;28;20227;-71
2023/12/28 02:09:27;;;;;;;42.00;13.97;;;;;;;-0.31;100.00;100340.91;4243218;28;20246;-70
2023/12/28 02:11:54;;;;;;;36.17;14.13;;;;;;;-0.37;100.00;100325.25;4244423;28;20239;-69
2023/12/28 02:14:22;;;;;;;39.07;14.37;;;;;;;-0.38;100.00;100321.75;4235409;28;22858;-69
2023/12/28 02:16:53;;;;;;;38.07;13.37;;;;;;;-0.38;100.00;100313.78;4228237;28;21496;-70
2023/12/28 02:19:51;;;;;;;39.97;13.43;;;;;;;-0.26;100.00;100317.59;4235739;28;21627;-71
2023/12/28 02:22:18;;;;;;;38.23;12.40;;;;;;;-0.28;100.00;100318.63;4230864;28;20231;-70
2023/12/28 02:25:06;;;;;;;33.43;11.37;;;;;;;-0.29;100.00;100331.03;4231624;28;22495;-71
2023/12/28 02:27:46;;;;;;;41.17;11.67;;;;;;;-0.13;100.00;100320.47;4254269;28;20319;-69
2023/12/28 02:30:21;;;;;;;39.80;11.30;;;;;;;-0.09;100.00;100316.69;4242038;28;22175;-70
2023/12/28 02:33:15;;;;;;;31.33;11.30;;;;;;;-0.01;100.00;100308.31;4238357;28;20284;-69
2023/12/28 02:35:45;;;;;;;26.90;9.70;;;;;;;0.10;100.00;100303.25;4232347;28;20231;-69
2023/12/28 02:38:15;;;;;;;30.77;10.43;;;;;;;0.20;99.09;100298.28;4241201;28;20970;-68
2023/12/28 02:40:46;;;;;;;27.90;10.40;;;;;;;0.22;99.10;100299.06;4229240;28;25606;-69
2023/12/28 02:43:13;;;;;;;30.27;9.90;;;;;;;0.35;97.76;100293.03;4255280;28;20458;-69
2023/12/28 02:45:39;;;;;;;31.90;10.33;;;;;;;0.30;97.60;100278.19;4236375;28;21112;-71
2023/12/28 02:48:07;;;;;;;31.83;10.63;;;;;;;0.36;97.46;100287.66;4227372;28;21784;-70
2023/12/28 02:50:35;;;;;;;33.03;9.80;;;;;;;0.48;96.76;100280.78;4237454;28;21771;-69
2023/12/28 02:53:02;;;;;;;28.07;10.13;;;;;;;0.45;96.54;100278.28;4243601;28;20223;-70
2023/12/28 02:55:29;;;;;;;32.90;9.57;;;;;;;0.30;96.81;100261.38;4237759;28;22714;-68
2023/12/28 02:58:00;;;;;;;31.37;9.23;;;;;;;0.40;96.65;100269.69;4242010;28;20334;-70
2023/12/28 03:00:28;;;;;;;27.37;8.90;;;;;;;0.34;96.49;100268.22;4240386;28;20230;-70
2023/12/28 03:02:55;;;;;;;28.50;9.93;;;;;;;0.31;96.55;100255.06;4240070;28;20253;-69
2023/12/28 03:05:22;;;;;;;29.90;9.47;;;;;;;0.37;96.49;100249.44;4242118;28;20308;-71
2023/12/28 03:07:48;;;;;;;25.30;9.30;;;;;;;0.42;95.83;100242.03;4241701;28;20235;-70
2023/12/28 03:10:15;;;;;;;25.07;8.90;;;;;;;0.29;96.21;100236.53;4248890;28;21444;-72
2023/12/28 03:12:41;;;;;;;31.80;9.50;;;;;;;0.34;96.04;100238.94;4233744;28;20247;-70
2023/12/28 03:15:08;;;;;;;28.87;8.47;;;;;;;0.39;95.88;100236.84;4220639;28;20413;-71
2023/12/28 03:17:36;;;;;;;25.20;7.60;;;;;;;0.55;95.19;100244.84;4243916;28;20247;-71
2023/12/28 03:20:05;;;;;;;24.93;8.57;;;;;;;0.54;94.58;100242.25;4257729;28;20234;-70
2023/12/28 03:22:31;;;;;;;25.83;7.60;;;;;;;0.53;94.67;100228.09;4235694;28;20242;-71
2023/12/28 03:24:58;;;;;;;30.67;8.27;;;;;;;0.53;94.17;100225.44;4242899;28;20247;-68
2023/12/28 03:27:25;;;;;;;27.53;8.40;;;;;;;0.46;94.44;100221.41;4248447;28;23829;-69
2023/12/28 03:29:51;;;;;;;24.10;7.63;;;;;;;0.54;94.01;100207.63;4246859;28;20230;-70
2023/12/28 03:32:18;;;;;;;28.23;8.53;;;;;;;0.53;93.75;100209.44;4238953;28;23218;-70
2023/12/28 03:34:44;;;;;;;23.07;8.07;;;;;;;0.45;94.40;100215.19;4240355;28;20564;-69
2023/12/28 03:37:11;;;;;;;25.17;8.50;;;;;;;0.33;94.68;100197.28;4246001;28;20243;-71
2023/12/28 03:39:38;;;;;;;25.50;8.87;;;;;;;0.40;94.43;100203.97;4235196;28;20302;-69
2023/12/28 03:42:05;;;;;;;28.80;8.80;;;;;;;0.46;94.02;100197.44;4221238;28;21803;-69
2023/12/28 03:44:31;;;;;;;25.93;8.30;;;;;;;0.39;94.26;100198.75;4235542;28;20364;-69
2023/12/28 03:46:58;;;;;;;33.27;8.63;;;;;;;0.44;93.90;100201.97;4238135;28;20324;-68
2023/12/28 03:49:25;;;;;;;22.90;8.63;;;;;;;0.43;93.62;100187.81;4243746;28;25447;-72
2023/12/28 03:51:52;;;;;;;27.40;9.07;;;;;;;0.43;93.73;100182.50;4235477;28;21821;-69
2023/12/28 03:54:20;;;;;;;22.10;8.00;;;;;;;0.41;93.89;100187.03;4235448;28;20241;-69
2023/12/28 03:56:46;;;;;;;28.80;8.23;;;;;;;0.34;93.56;100190.16;4239856;28;20235;-71
2023/12/28 03:59:16;;;;;;;31.43;9.00;;;;;;;0.38;93.24;100175.72;4245487;28;20233;-69
2023/12/28 04:01:44;;;;;;;26.10;8.47;;;;;;;0.43;92.38;100171.84;4238901;28;20238;-69
2023/12/28 04:04:10;;;;;;;25.60;8.73;;;;;;;0.42;92.42;100166.59;4246470;28;20232;-69
2023/12/28 04:06:38;;;;;;;26.77;8.57;;;;;;;0.39;92.62;100164.13;4233709;28;20238;-69
2023/12/28 04:09:05;;;;;;;29.17;8.73;;;;;;;0.46;92.18;100154.81;4238249;28;20234;-69
2023/12/28 04:11:31;;;;;;;28.13;8.03;;;;;;;0.45;91.74;100147.78;4228477;28;21182;-70
2023/12/28 04:13:58;;;;;;;25.97;8.67;;;;;;;0.34;91.81;100145.75;4246542;28;20356;-71
2023/12/28 04:16:24;;;;;;;31.00;10.00;;;;;;;0.28;92.11;100132.78;4239538;28;20299;-69
2023/12/28 04:18:51;;;;;;;33.50;9.77;;;;;;;0.36;91.95;100135.88;4241657;28;21091;-69
2023/12/28 04:21:18;;;;;;;26.73;8.37;;;;;;;0.41;91.85;100146.25;4239641;28;20301;-71
2023/12/28 04:23:45;;;;;;;25.43;7.93;;;;;;;0.48;90.56;100150.28;4235866;28;20224;-70
2023/12/28 04:26:11;;;;;;;23.10;8.67;;;;;;;0.45;90.22;100140.63;4242785;28;20267;-69
2023/12/28 04:28:38;;;;;;;36.70;7.63;;;;;;;0.53;89.94;100134.88;4239864;28;20228;-70
2023/12/28 04:31:06;;;;;;;22.97;7.80;;;;;;;0.51;90.09;100135.91;4228683;28;22393;-70
2023/12/28 04:33:33;;;;;;;21.10;8.13;;;;;;;0.44;90.05;100120.31;4239808;28;23310;-70
2023/12/28 04:36:06;;;;;;;23.43;7.87;;;;;;;0.42;90.40;100111.53;4240179;28;20374;-70
2023/12/28 04:38:33;;;;;;;30.07;8.27;;;;;;;0.30;90.56;100115.78;4238331;28;20251;-69
2023/12/28 04:41:00;;;;;;;27.73;8.77;;;;;;;0.40;90.17;100108.09;4240167;28;20353;-71
2023/12/28 04:43:27;;;;;;;30.27;8.57;;;;;;;0.43;89.70;100110.59;4244879;28;20238;-69
2023/12/28 04:45:54;;;;;;;25.43;8.40;;;;;;;0.54;89.45;100115.28;4240466;28;20318;-71
2023/12/28 04:48:23;;;;;;;24.90;8.43;;;;;;;0.55;88.95;100098.34;4243811;28;20662;-71
2023/12/28 04:50:52;;;;;;;28.20;9.80;;;;;;;0.39;89.91;100092.22;4234313;28;21133;-69
2023/12/28 04:53:19;;;;;;;24.33;8.17;;;;;;;0.41;90.20;100087.66;4240450;28;20226;-71
2023/12/28 04:55:45;;;;;;;26.83;8.73;;;;;;;0.29;90.29;100078.59;4236800;28;20390;-69
2023/12/28 04:58:12;;;;;;;28.10;8.73;;;;;;;0.30;90.49;100081.16;4237371;28;21131;-69
2023/12/28 05:00:39;;;;;;;28.57;9.20;;;;;;;0.32;89.99;100054.44;4236384;28;20625;-70
2023/12/28 05:03:06;;;;;;;26.50;8.30;;;;;;;0.42;89.79;100063.59;4245165;28;20236;-70
2023/12/28 05:05:33;;;;;;;30.70;9.37;;;;;;;0.36;89.94;100073.75;4230758;28;20234;-69
2023/12/28 05:08:00;;;;;;;27.13;8.50;;;;;;;0.41;89.40;100061.03;4234910;28;20624;-68
2023/12/28 05:10:27;;;;;;;29.83;8.90;;;;;;;0.46;89.34;100053.63;4234503;28;20459;-71
2023/12/28 05:12:54;;;;;;;26.13;8.20;;;;;;;0.38;89.59;100054.06;4238943;28;20254;-69
2023/12/28 05:15:28;;;;;;;25.30;8.40;;;;;;;0.41;89.39;100045.06;4239050;28;20238;-70
2023/12/28 05:17:54;;;;;;;26.03;9.00;;;;;;;0.43;89.29;100049.34;4224355;28;20229;-69
2023/12/28 05:20:21;;;;;;;22.67;7.80;;;;;;;0.50;88.98;100035.66;4236330;28;22289;-70
2023/12/28 05:22:48;;;;;;;33.20;9.80;;;;;;;0.43;88.79;100024.50;4240123;28;20273;-70
2023/12/28 05:25:15;;;;;;;22.03;7.60;;;;;;;0.49;89.05;100021.50;4244164;28;25233;-71
2023/12/28 05:27:42;;;;;;;26.23;9.30;;;;;;;0.55;88.59;100022.91;4234303;28;20231;-69
2023/12/28 05:30:10;;;;;;;26.13;8.03;;;;;;;0.56;88.26;100004.19;4238104;28;20302;-71
2023/12/28 05:32:37;;;;;;;24.17;8.10;;;;;;;0.49;88.58;99991.31;4243535;28;20545;-69
2023/12/28 05:35:05;;;;;;;23.00;8.03;;;;;;;0.41;88.94;99987.31;4247378;28;20235;-70
2023/12/28 05:37:31;;;;;;;25.33;9.00;;;;;;;0.40;88.98;99974.13;4235115;28;20577;-71
2023/12/28 05:39:57;;;;;;;25.93;9.30;;;;;;;0.29;89.76;99972.94;4241507;28;21256;-69
2023/12/28 05:42:24;;;;;;;19.77;7.97;;;;;;;0.41;89.37;99981.16;4231460;28;22221;-71
2023/12/28 05:44:51;;;;;;;22.10;8.63;;;;;;;0.40;89.35;99968.78;4233064;28;20330;-69
2023/12/28 05:47:17;;;;;;;27.03;8.43;;;;;;;0.35;89.25;99961.09;4237139;28;20273;-71
2023/12/28 05:49:44;;;;;;;24.87;8.30;;;;;;;0.35;89.70;99962.88;4239586;28;20742;-68
2023/12/28 05:52:14;;;;;;;28.30;9.10;;;;;;;0.35;89.41;99962.88;4245376;28;20236;-70
2023/12/28 05:54:43;;;;;;;29.87;8.47;;;;;;;0.32;90.25;99966.59;4237506;28;20412;-72
2023/12/28 05:57:10;;;;;;;25.77;8.73;;;;;;;0.41;89.77;99978.50;4235034;28;20294;-71
2023/12/28 05:59:40;;;;;;;30.10;8.80;;;;;;;0.46;89.45;99987.06;4235444;28;20243;-69
2023/12/28 06:02:07;;;;;;;23.37;8.63;;;;;;;0.30;89.92;99987.97;4242818;28;20230;-71
2023/12/28 06:04:35;;;;;;;25.77;8.60;;;;;;;0.42;89.87;99977.53;4234868;28;20313;-70
2023/12/28 06:07:04;;;;;;;26.23;8.83;;;;;;;0.37;89.88;99974.28;4236337;28;20424;-70
2023/12/28 06:09:31;;;;;;;32.87;9.33;;;;;;;0.27;89.93;99956.22;4246792;28;20223;-68
2023/12/28 06:11:58;;;;;;;27.50;8.60;;;;;;;0.33;89.96;99968.31;4238958;28;20232;-69
2023/12/28 06:14:24;;;;;;;31.90;9.00;;;;;;;0.37;90.10;99960.97;4235918;28;20294;-72
2023/12/28 06:16:51;;;;;;;30.17;8.83;;;;;;;0.35;90.15;99973.53;4243321;28;20253;-70
2023/12/28 06:19:18;;;;;;;25.40;9.37;;;;;;;0.37;90.39;99972.50;4242899;28;25629;-70
2023/12/28 06:21:45;;;;;;;25.10;8.13;;;;;;;0.48;89.94;99971.84;4237660;28;20310;-72
2023/12/28 06:24:11;;;;;;;29.67;9.33;;;;;;;0.43;89.96;99988.09;4239070;28;20246;-69
2023/12/28 06:26:42;;;;;;;23.80;9.07;;;;;;;0.30;90.53;99979.16;4237877;28;21104;-71
2023/12/28 06:29:09;;;;;;;25.70;8.73;;;;;;;0.35;90.54;99984.16;4239890;28;20861;-69
2023/12/28 06:31:37;;;;;;;27.50;8.50;;;;;;;0.55;89.67;99973.19;4239994;28;20678;-70
2023/12/28 06:34:04;;;;;;;30.53;9.47;;;;;;;0.50;89.80;99979.72;4237741;28;20239;-72
2023/12/28 06:36:31;;;;;;;23.37;8.40;;;;;;;0.55;89.36;99993.59;4236764;28;21500;-71
2023/12/28 06:38:58;;;;;;;26.60;9.67;;;;;;;0.58;89.03;99977.44;4242404;28;20320;-70
2023/12/28 06:41:26;;;;;;;26.27;10.23;;;;;;;0.72;88.92;99976.56;4240489;28;20226;-69
2023/12/28 06:43:52;;;;;;;26.57;10.47;;;;;;;0.55;89.45;99957.19;4232575;28;21943;-70
2023/12/28 06:46:20;;;;;;;24.67;8.70;;;;;;;0.57;89.62;99946.44;4239945;28;20235;-70
2023/12/28 06:48:47;;;;;;;30.80;9.53;;;;;;;0.68;89.36;99951.94;4236656;28;20303;-71
2023/12/28 06:51:21;;;;;;;25.73;8.90;;;;;;;0.61;89.63;99963.94;4241743;28;20608;-71
2023/12/28 06:53:49;;;;;;;31.57;9.47;;;;;;;0.66;89.17;99958.31;4241745;28;20267;-70
2023/12/28 06:56:16;;;;;;;26.20;9.00;;;;;;;0.73;89.48;99959.66;4252042;28;20233;-68
2023/12/28 06:58:43;;;;;;;27.80;9.77;;;;;;;0.71;89.54;99962.41;4245921;28;20227;-68
2023/12/28 07:01:11;;;;;;;23.87;9.63;;;;;;;0.64;89.50;99953.09;4235700;28;20230;-67
2023/12/28 07:03:38;;;;;;;26.97;8.73;;;;;;;0.82;89.30;99952.91;4234514;28;20245;-68
2023/12/28 07:06:05;;;;;;;28.00;9.50;;;;;;;0.86;88.95;99949.94;4235888;28;20298;-67
2023/12/28 07:08:31;;;;;;;24.33;8.97;;;;;;;0.85;89.28;99945.56;4238958;28;20930;-68
2023/12/28 07:11:03;;;;;;;24.47;9.07;;;;;;;0.91;89.07;99933.63;4252689;28;20234;-68
2023/12/28 07:13:31;;;;;;;23.70;9.30;;;;;;;0.92;89.24;99938.91;4232982;28;20236;-66
2023/12/28 07:15:58;;;;;;;23.13;8.53;;;;;;;1.07;89.07;99933.53;4225246;28;20238;-64
2023/12/28 07:18:26;;;;;;;28.03;9.13;;;;;;;1.00;89.16;99929.53;4242111;28;20230;-66
2023/12/28 07:20:55;;;;;;;20.73;8.70;;;;;;;1.11;88.95;99937.69;4238410;28;20234;-77
2023/12/28 07:23:21;;;;;;;22.93;9.33;;;;;;;1.14;88.86;99923.31;4236948;28;20231;-74
2023/12/28 07:25:48;;;;;;;24.20;8.73;;;;;;;1.13;88.75;99934.94;4223424;28;20239;-73
2023/12/28 07:28:15;;;;;;;22.37;9.57;;;;;;;1.26;88.87;99926.03;4244387;28;25916;-74
2023/12/28 07:30:41;;;;;;;30.80;9.67;;;;;;;1.36;88.17;99922.78;4242252;28;21766;-75
2023/12/28 07:33:09;;;;;;;24.10;8.67;;;;;;;1.25;88.37;99926.97;4232799;28;20235;-74
2023/12/28 07:35:35;;;;;;;22.87;9.20;;;;;;;1.25;89.06;99926.97;4246900;28;22988;-78
2023/12/28 07:38:02;;;;;;;23.77;8.90;;;;;;;1.29;88.97;99927.63;4239305;28;20230;-76
2023/12/28 07:40:29;;;;;;;29.20;10.40;;;;;;;1.44;88.74;99931.13;4234401;28;21034;-75
2023/12/28 07:42:56;;;;;;;23.50;9.10;;;;;;;1.51;88.37;99923.59;4240131;28;20343;-74
2023/12/28 07:45:24;;;;;;;24.97;9.43;;;;;;;1.62;87.88;99902.38;4227752;28;20238;-77
2023/12/28 07:47:51;;;;;;;23.47;9.47;;;;;;;1.77;87.50;99902.28;4237132;28;20234;-78
2023/12/28 07:50:19;;;;;;;21.37;8.73;;;;;;;1.77;87.83;99894.28;4241881;28;20598;-79
2023/12/28 07:52:47;;;;;;;25.40;9.30;;;;;;;1.84;87.92;99912.44;4247998;28;21738;-74
2023/12/28 07:55:14;;;;;;;28.17;9.33;;;;;;;1.90;87.91;99920.03;4232572;28;20302;-75
2023/12/28 07:57:42;;;;;;;22.83;9.10;;;;;;;2.05;87.27;99912.78;4237789;28;20698;-76
2023/12/28 08:00:10;;;;;;;25.00;10.30;;;;;;;2.17;86.69;99918.25;4237479;28;20415;-75
2023/12/28 08:02:37;;;;;;;25.27;9.70;;;;;;;2.37;86.25;99933.72;4232826;28;20429;-73
2023/12/28 08:05:04;;;;;;;29.33;10.13;;;;;;;2.38;85.77;99938.09;4240586;28;20223;-74
2023/12/28 08:07:31;;;;;;;29.33;10.27;;;;;;;2.35;86.29;99943.66;4247970;28;20780;-75
2023/12/28 08:09:58;;;;;;;28.23;10.40;;;;;;;2.59;85.98;99948.25;4237853;28;20239;-75
2023/12/28 08:12:27;;;;;;;21.50;9.00;;;;;;;2.72;84.91;99939.38;4252301;28;20382;-72
2023/12/28 08:14:55;;;;;;;30.63;10.17;;;;;;;2.82;84.86;99937.72;4242569;28;20238;-75
2023/12/28 08:17:25;;;;;;;30.23;9.63;;;;;;;2.88;84.85;99920.41;4248057;28;20501;-73
2023/12/28 08:19:52;;;;;;;25.70;9.33;;;;;;;2.89;84.21;99924.78;4220331;28;20242;-74
2023/12/28 08:22:19;;;;;;;24.07;9.17;;;;;;;3.00;84.68;99920.38;4222662;28;22811;-73
2023/12/28 08:24:45;;;;;;;26.67;9.13;;;;;;;3.08;84.49;99905.59;4239670;28;20234;-73
2023/12/28 08:27:12;;;;;;;22.37;9.77;;;;;;;3.11;84.57;99911.56;4237230;28;22579;-73
2023/12/28 08:29:41;;;;;;;22.10;8.73;;;;;;;3.39;83.62;99901.50;4223165;28;20249;-72
2023/12/28 08:32:08;;;;;;;28.10;9.50;;;;;;;3.44;83.42;99906.50;4240717;28;24885;-73
2023/12/28 08:34:35;;;;;;;25.80;9.27;;;;;;;3.54;82.87;99890.59;4236827;28;20304;-71
2023/12/28 08:37:02;;;;;;;19.07;8.67;;;;;;;3.69;82.26;99893.97;4237702;28;21122;-71
2023/12/28 08:39:28;;;;;;;26.30;8.93;;;;;;;3.71;81.99;99895.53;4238446;28;22096;-73
2023/12/28 08:41:55;;;;;;;24.40;8.50;;;;;;;3.82;81.84;99913.47;4241479;28;20630;-73
2023/12/28 08:44:22;;;;;;;18.63;8.40;;;;;;;4.04;81.32;99901.09;4246850;28;23578;-75
2023/12/28 08:46:49;;;;;;;19.03;7.97;;;;;;;4.16;80.41;99904.66;4246584;28;20231;-71
2023/12/28 08:49:15;;;;;;;22.33;8.87;;;;;;;4.33;79.94;99900.66;4238464;28;20235;-72
2023/12/28 08:51:42;;;;;;;23.67;8.30;;;;;;;4.54;78.84;99908.84;4245127;28;20632;-72
2023/12/28 08:54:10;;;;;;;22.07;8.03;;;;;;;4.51;78.50;99909.94;4249732;28;23104;-74
2023/12/28 08:56:37;;;;;;;19.67;8.10;;;;;;;4.55;78.18;99908.69;4238883;28;20627;-72
2023/12/28 08:59:04;;;;;;;19.63;7.80;;;;;;;4.78;77.83;99894.44;4237633;28;20234;-72
2023/12/28 09:01:30;;;;;;;21.80;7.60;;;;;;;4.94;76.57;99894.91;4251686;28;20299;-74
2023/12/28 09:03:58;;;;;;;16.80;7.30;;;;;;;5.17;75.35;99895.72;4254486;28;20707;-72
2023/12/28 09:06:25;;;;;;;20.50;7.60;;;;;;;5.12;75.79;99895.25;4255348;28;20473;-71
2023/12/28 09:08:53;;;;;;;22.97;8.37;;;;;;;5.29;74.96;99883.13;4243558;28;20233;-75
2023/12/28 09:11:22;;;;;;;19.30;7.03;;;;;;;5.42;74.97;99891.00;4264586;28;20690;-77
2023/12/28 09:13:49;;;;;;;22.50;8.27;;;;;;;5.44;74.03;99872.06;4253887;28;20243;-74
2023/12/28 09:16:15;;;;;;;18.73;7.27;;;;;;;5.39;75.06;99893.94;4243919;28;20238;-73
2023/12/28 09:18:42;;;;;;;13.03;4.73;;;;;;;5.26;75.44;99891.41;4285352;28;20605;-73
2023/12/28 09:21:10;;;;;;;20.37;7.20;;;;;;;5.38;75.40;99886.84;4268611;28;20235;-74
2023/12/28 09:23:37;;;;;;;27.77;6.50;;;;;;;5.60;74.69;99880.56;4243092;28;22216;-74
2023/12/28 09:26:05;;;;;;;1.53;0.87;;;;;;;5.52;74.12;99873.13;4250686;28;21776;-72
2023/12/28 09:28:32;;;;;;;2.30;1.23;;;;;;;5.50;74.63;99866.19;4241878;28;20239;-73
2023/12/28 09:31:00;;;;;;;14.77;4.90;;;;;;;5.55;74.92;99861.31;4253233;28;20228;-71
2023/12/28 09:33:27;;;;;;;0.07;0.07;;;;;;;5.68;73.87;99869.16;4241444;28;20230;-72
2023/12/28 09:35:55;;;;;;;17.13;6.90;;;;;;;5.52;74.98;99867.75;4234876;28;20425;-77
2023/12/28 09:38:22;;;;;;;11.50;4.47;;;;;;;5.42;75.13;99865.97;4237939;28;20226;-79
2023/12/28 09:40:54;;;;;;;10.27;1.80;;;;;;;5.50;77.37;99866.19;4240780;28;20230;-74
2023/12/28 09:43:41;;;;;;;10.17;6.03;;;;;;;5.44;77.88;99858.66;4243189;28;21179;-75
2023/12/28 09:46:07;;;;;;;18.10;7.03;;;;;;;5.21;81.02;99885.56;4241961;28;20230;-74
2023/12/28 09:48:36;;;;;;;16.90;6.90;;;;;;;5.02;82.57;99884.38;4243523;28;20250;-73
2023/12/28 09:51:03;;;;;;;15.60;7.23;;;;;;;4.94;84.08;99888.69;4246059;28;20242;-75
2023/12/28 09:53:30;;;;;;;17.20;6.77;;;;;;;4.97;83.55;99875.88;4245318;28;20238;-77
2023/12/28 09:55:58;;;;;;;17.37;6.90;;;;;;;4.96;84.02;99874.16;4241118;28;20243;-75
2023/12/28 09:58:25;;;;;;;17.33;6.90;;;;;;;4.99;83.62;99881.09;4239035;28;20235;-74
2023/12/28 10:00:52;;;;;;;15.50;6.70;;;;;;;4.93;84.02;99879.78;4273657;28;20239;-72
2023/12/28 10:03:19;;;;;;;15.00;7.00;;;;;;;4.96;83.46;99876.84;4239985;28;22820;-74
2023/12/28 10:05:46;;;;;;;16.13;7.07;;;;;;;5.02;nan;99892.44;4235674;28;20233;-71
2023/12/28 10:08:15;;;;;;;21.00;8.03;;;;;;;5.05;83.06;99883.31;4233513;28;20231;-72
2023/12/28 10:10:50;;;;;;;19.90;7.60;;;;;;;5.05;83.16;99892.19;4243768;28;25037;-73
2023/12/28 10:13:17;;;;;;;19.77;7.00;;;;;;;5.14;82.38;99895.09;4234486;28;20674;-73
2023/12/28 10:15:44;;;;;;;13.70;6.37;;;;;;;5.12;82.36;99887.19;4241541;28;20230;-73
2023/12/28 10:18:11;;;;;;;17.17;6.90;;;;;;;5.15;82.41;99875.34;4229334;28;20372;-73
2023/12/28 10:20:38;;;;;;;16.47;6.57;;;;;;;5.15;82.84;99883.41;4238233;28;20226;-74
2023/12/28 10:23:05;;;;;;;15.93;6.87;;;;;;;5.19;82.59;99887.53;4245480;28;20231;-73
2023/12/28 10:25:32;;;;;;;14.03;6.27;;;;;;;5.19;82.75;99888.41;4245350;28;21140;-73
2023/12/28 10:28:08;;;;;;;17.50;7.10;;;;;;;5.20;82.23;99890.09;4240317;28;20313;-73
2023/12/28 10:30:34;;;;;;;18.60;7.10;;;;;;;5.18;82.26;99886.69;4245653;28;22813;-74
2023/12/28 10:33:05;;;;;;;16.63;7.20;;;;;;;5.22;82.60;99884.59;4233621;28;22105;-71
2023/12/28 10:35:32;;;;;;;17.50;6.67;;;;;;;5.20;82.46;99873.13;4231396;28;20273;-74
2023/12/28 10:38:00;;;;;;;15.47;7.17;;;;;;;5.24;82.45;99872.75;4222722;28;20351;-74
2023/12/28 10:40:27;;;;;;;21.30;7.90;;;;;;;5.31;82.54;99858.81;4239066;28;22099;-75
2023/12/28 10:43:03;;;;;;;16.17;7.33;;;;;;;5.35;82.69;99863.81;4235128;28;20235;-73
2023/12/28 10:45:34;;;;;;;21.20;7.63;;;;;;;5.45;82.97;99861.22;4234755;28;20247;-76
2023/12/28 10:48:12;;;;;;;15.43;7.10;;;;;;;5.46;83.04;99852.19;4263247;28;20497;-75
2023/12/28 10:50:52;;;;;;;14.97;6.80;;;;;;;5.46;83.23;99862.06;4238788;28;20224;-73
2023/12/28 10:53:30;;;;;;;16.77;6.43;;;;;;;5.47;83.81;99869.16;4227352;28;21484;-73
2023/12/28 10:56:36;;;;;;;16.70;6.80;;;;;;;5.46;84.08;99879.03;4250546;28;20246;-73
2023/12/28 10:59:16;;;;;;;13.60;6.50;;;;;;;5.43;84.34;99878.44;4241371;28;20328;-73
2023/12/28 11:01:47;;;;;;;16.63;6.50;;;;;;;5.34;86.64;99894.31;4229878;28;21829;-75
2023/12/28 11:04:47;;;;;;;16.37;7.73;;;;;;;5.21;88.99;99888.25;4247664;28;20257;-74
2023/12/28 11:07:17;;;;;;;16.43;6.67;;;;;;;5.13;90.29;99906.81;4248223;28;20231;-74
2023/12/28 11:09:44;;;;;;;16.77;6.93;;;;;;;5.11;92.44;99901.59;4251030;28;20793;-74
2023/12/28 11:12:12;;;;;;;13.73;6.20;;;;;;;5.02;94.71;99894.28;4237894;28;20262;-75
2023/12/28 11:14:40;;;;;;;21.70;7.13;;;;;;;4.94;96.63;99889.56;4237792;28;20233;-70
2023/12/28 11:17:08;;;;;;;16.03;6.80;;;;;;;4.89;97.79;99889.94;4237050;28;21129;-72
2023/12/28 11:19:36;;;;;;;15.90;7.17;;;;;;;4.84;98.29;99891.28;4242564;28;22192;-72
2023/12/28 11:22:03;;;;;;;17.10;6.90;;;;;;;4.83;98.80;99889.56;4222171;28;20274;-73
2023/12/28 11:24:31;;;;;;;19.13;7.50;;;;;;;4.83;99.01;99884.19;4234112;28;20935;-71
2023/12/28 11:26:58;;;;;;;19.73;7.87;;;;;;;4.79;99.18;99891.63;4245000;28;21355;-73
2023/12/28 11:29:24;;;;;;;15.20;7.17;;;;;;;4.81;98.84;99892.38;4238930;28;21700;-72